sensor_id;sensor_type;location;lat;lon;timestamp;P1;durP1;ratioP1;P2;durP2;ratioP2
18190;SDS011;47004;51.366;12.348;2023-04-01T00:00:46;3.53;;;1.57;;
18190;SDS011;47004;51.366;12.348;2023-04-01T00:02:50;4.73;;;1.70;;
18190;SDS011;47004;51.366;12.348;2023-04-01T00:04:52;3.17;;;1.53;;
18190;SDS011;47004;51.366;12.348;2023-04-01T00:06:53;3.67;;;1.80;;
18190;SDS011;47004;51.366;12.348;2023-04-01T00:08:55;3.17;;;1.57;;
18190;SDS011;47004;51.366;12.348;2023-04-01T00:10:59;4.87;;;1.83;;
18190;SDS011;47004;51.366;12.348;2023-04-01T00:13:01;8.43;;;2.30;;
18190;SDS011;47004;51.366;12.348;2023-04-01T00:15:03;6.17;;;1.70;;
18190;SDS011;47004;51.366;12.348;2023-04-01T00:17:06;7.07;;;1.80;;
18190;SDS011;47004;51.366;12.348;2023-04-01T00:19:08;4.30;;;1.90;;
18190;SDS011;47004;51.366;12.348;2023-04-01T00:21:10;3.53;;;1.60;;
18190;SDS011;47004;51.366;12.348;2023-04-01T00:23:11;3.77;;;1.80;;
18190;SDS011;47004;51.366;12.348;2023-04-01T00:25:13;5.37;;;1.87;;
18190;SDS011;47004;51.366;12.348;2023-04-01T00:27:17;6.93;;;2.10;;
18190;SDS011;47004;51.366;12.348;2023-04-01T00:29:19;6.60;;;2.30;;
18190;SDS011;47004;51.366;12.348;2023-04-01T00:31:21;5.00;;;2.00;;
18190;SDS011;47004;51.366;12.348;2023-04-01T00:33:23;3.70;;;2.00;;
18190;SDS011;47004;51.366;12.348;2023-04-01T00:35:25;5.23;;;2.03;;
18190;SDS011;47004;51.366;12.348;2023-04-01T00:37:27;8.27;;;2.10;;
18190;SDS011;47004;51.366;12.348;2023-04-01T00:39:29;4.77;;;2.00;;
18190;SDS011;47004;51.366;12.348;2023-04-01T00:41:31;3.13;;;2.00;;
18190;SDS011;47004;51.366;12.348;2023-04-01T00:43:34;5.80;;;2.03;;
18190;SDS011;47004;51.366;12.348;2023-04-01T00:45:37;2.93;;;2.00;;
18190;SDS011;47004;51.366;12.348;2023-04-01T00:47:40;4.93;;;2.30;;
18190;SDS011;47004;51.366;12.348;2023-04-01T00:49:44;6.03;;;2.27;;
18190;SDS011;47004;51.366;12.348;2023-04-01T00:51:49;5.97;;;2.30;;
18190;SDS011;47004;51.366;12.348;2023-04-01T00:53:53;5.73;;;2.23;;
18190;SDS011;47004;51.366;12.348;2023-04-01T00:56:00;4.27;;;2.13;;
18190;SDS011;47004;51.366;12.348;2023-04-01T00:58:07;4.47;;;1.80;;
18190;SDS011;47004;51.366;12.348;2023-04-01T01:00:17;3.27;;;1.80;;
18190;SDS011;47004;51.366;12.348;2023-04-01T01:02:19;4.17;;;1.90;;
18190;SDS011;47004;51.366;12.348;2023-04-01T01:04:22;4.33;;;1.93;;
18190;SDS011;47004;51.366;12.348;2023-04-01T01:06:29;3.50;;;1.73;;
18190;SDS011;47004;51.366;12.348;2023-04-01T01:08:45;3.80;;;1.80;;
18190;SDS011;47004;51.366;12.348;2023-04-01T01:10:53;3.73;;;1.80;;
18190;SDS011;47004;51.366;12.348;2023-04-01T01:12:57;4.03;;;1.90;;
18190;SDS011;47004;51.366;12.348;2023-04-01T01:15:06;6.83;;;2.03;;
18190;SDS011;47004;51.366;12.348;2023-04-01T01:17:17;3.00;;;1.90;;
18190;SDS011;47004;51.366;12.348;2023-04-01T01:19:33;4.40;;;1.87;;
18190;SDS011;47004;51.366;12.348;2023-04-01T01:21:56;4.00;;;1.57;;
18190;SDS011;47004;51.366;12.348;2023-04-01T01:24:13;3.50;;;2.07;;
18190;SDS011;47004;51.366;12.348;2023-04-01T01:26:33;5.47;;;1.70;;
18190;SDS011;47004;51.366;12.348;2023-04-01T01:28:45;6.13;;;1.57;;
18190;SDS011;47004;51.366;12.348;2023-04-01T01:30:59;6.63;;;1.73;;
18190;SDS011;47004;51.366;12.348;2023-04-01T01:33:13;5.07;;;1.83;;
18190;SDS011;47004;51.366;12.348;2023-04-01T01:35:28;5.10;;;2.03;;
18190;SDS011;47004;51.366;12.348;2023-04-01T01:37:33;6.80;;;1.83;;
18190;SDS011;47004;51.366;12.348;2023-04-01T01:39:36;5.30;;;1.77;;
18190;SDS011;47004;51.366;12.348;2023-04-01T01:41:40;3.33;;;1.60;;
18190;SDS011;47004;51.366;12.348;2023-04-01T01:43:46;2.60;;;1.70;;
18190;SDS011;47004;51.366;12.348;2023-04-01T01:45:52;2.97;;;1.70;;
18190;SDS011;47004;51.366;12.348;2023-04-01T01:47:57;2.70;;;1.80;;
18190;SDS011;47004;51.366;12.348;2023-04-01T01:50:01;4.07;;;1.93;;
18190;SDS011;47004;51.366;12.348;2023-04-01T01:52:06;2.70;;;1.77;;
18190;SDS011;47004;51.366;12.348;2023-04-01T01:54:11;4.80;;;2.30;;
18190;SDS011;47004;51.366;12.348;2023-04-01T01:56:13;3.93;;;2.10;;
18190;SDS011;47004;51.366;12.348;2023-04-01T01:58:17;4.20;;;2.37;;
18190;SDS011;47004;51.366;12.348;2023-04-01T02:00:23;4.03;;;1.90;;
18190;SDS011;47004;51.366;12.348;2023-04-01T02:02:26;5.57;;;1.93;;
18190;SDS011;47004;51.366;12.348;2023-04-01T02:04:31;4.70;;;1.87;;
18190;SDS011;47004;51.366;12.348;2023-04-01T02:06:34;5.53;;;2.00;;
18190;SDS011;47004;51.366;12.348;2023-04-01T02:08:42;4.67;;;2.23;;
18190;SDS011;47004;51.366;12.348;2023-04-01T02:10:48;5.20;;;2.37;;
18190;SDS011;47004;51.366;12.348;2023-04-01T02:12:57;6.00;;;1.90;;
18190;SDS011;47004;51.366;12.348;2023-04-01T02:15:03;2.43;;;1.90;;
18190;SDS011;47004;51.366;12.348;2023-04-01T02:17:09;5.27;;;2.07;;
18190;SDS011;47004;51.366;12.348;2023-04-01T02:19:15;2.67;;;1.83;;
18190;SDS011;47004;51.366;12.348;2023-04-01T02:21:22;7.27;;;2.27;;
18190;SDS011;47004;51.366;12.348;2023-04-01T02:23:26;5.17;;;2.20;;
18190;SDS011;47004;51.366;12.348;2023-04-01T02:25:33;4.17;;;1.90;;
18190;SDS011;47004;51.366;12.348;2023-04-01T02:27:36;4.37;;;2.30;;
18190;SDS011;47004;51.366;12.348;2023-04-01T02:29:38;3.80;;;1.53;;
18190;SDS011;47004;51.366;12.348;2023-04-01T02:31:40;6.10;;;2.10;;
18190;SDS011;47004;51.366;12.348;2023-04-01T02:33:44;8.67;;;2.10;;
18190;SDS011;47004;51.366;12.348;2023-04-01T02:35:46;4.27;;;1.57;;
18190;SDS011;47004;51.366;12.348;2023-04-01T02:37:48;6.50;;;2.30;;
18190;SDS011;47004;51.366;12.348;2023-04-01T02:39:51;4.17;;;1.70;;
18190;SDS011;47004;51.366;12.348;2023-04-01T02:41:55;5.07;;;1.90;;
18190;SDS011;47004;51.366;12.348;2023-04-01T02:43:57;8.47;;;2.13;;
18190;SDS011;47004;51.366;12.348;2023-04-01T02:45:59;4.20;;;1.90;;
18190;SDS011;47004;51.366;12.348;2023-04-01T02:48:02;5.20;;;1.77;;
18190;SDS011;47004;51.366;12.348;2023-04-01T02:50:04;3.57;;;1.53;;
18190;SDS011;47004;51.366;12.348;2023-04-01T02:52:07;6.90;;;1.70;;
18190;SDS011;47004;51.366;12.348;2023-04-01T02:54:09;4.63;;;1.60;;
18190;SDS011;47004;51.366;12.348;2023-04-01T02:56:11;6.47;;;2.20;;
18190;SDS011;47004;51.366;12.348;2023-04-01T02:58:14;7.13;;;1.57;;
18190;SDS011;47004;51.366;12.348;2023-04-01T03:00:16;2.80;;;1.27;;
18190;SDS011;47004;51.366;12.348;2023-04-01T03:02:18;5.60;;;1.43;;
18190;SDS011;47004;51.366;12.348;2023-04-01T03:04:20;4.83;;;1.47;;
18190;SDS011;47004;51.366;12.348;2023-04-01T03:06:22;3.43;;;1.23;;
18190;SDS011;47004;51.366;12.348;2023-04-01T03:08:24;5.23;;;1.43;;
18190;SDS011;47004;51.366;12.348;2023-04-01T03:10:26;4.70;;;1.40;;
18190;SDS011;47004;51.366;12.348;2023-04-01T03:12:28;5.10;;;1.50;;
18190;SDS011;47004;51.366;12.348;2023-04-01T03:14:31;2.23;;;1.10;;
18190;SDS011;47004;51.366;12.348;2023-04-01T03:16:33;4.70;;;1.70;;
18190;SDS011;47004;51.366;12.348;2023-04-01T03:18:35;3.10;;;1.33;;
18190;SDS011;47004;51.366;12.348;2023-04-01T03:20:37;4.97;;;1.67;;
18190;SDS011;47004;51.366;12.348;2023-04-01T03:22:39;3.63;;;1.40;;
18190;SDS011;47004;51.366;12.348;2023-04-01T03:24:41;5.57;;;1.50;;
18190;SDS011;47004;51.366;12.348;2023-04-01T03:26:43;5.30;;;1.80;;
18190;SDS011;47004;51.366;12.348;2023-04-01T03:28:45;5.80;;;1.33;;
18190;SDS011;47004;51.366;12.348;2023-04-01T03:30:48;3.17;;;1.40;;
18190;SDS011;47004;51.366;12.348;2023-04-01T03:32:50;5.47;;;1.60;;
18190;SDS011;47004;51.366;12.348;2023-04-01T03:34:51;4.57;;;1.60;;
18190;SDS011;47004;51.366;12.348;2023-04-01T03:36:53;6.23;;;1.70;;
18190;SDS011;47004;51.366;12.348;2023-04-01T03:38:55;2.87;;;1.30;;
18190;SDS011;47004;51.366;12.348;2023-04-01T03:40:57;2.07;;;1.30;;
18190;SDS011;47004;51.366;12.348;2023-04-01T03:42:59;8.80;;;1.77;;
18190;SDS011;47004;51.366;12.348;2023-04-01T03:45:01;6.93;;;1.60;;
18190;SDS011;47004;51.366;12.348;2023-04-01T03:47:05;7.07;;;2.20;;
18190;SDS011;47004;51.366;12.348;2023-04-01T03:49:09;8.73;;;2.07;;
18190;SDS011;47004;51.366;12.348;2023-04-01T03:51:12;4.33;;;1.47;;
18190;SDS011;47004;51.366;12.348;2023-04-01T03:53:14;5.17;;;1.53;;
18190;SDS011;47004;51.366;12.348;2023-04-01T03:55:16;3.87;;;1.30;;
18190;SDS011;47004;51.366;12.348;2023-04-01T03:57:18;3.90;;;1.40;;
18190;SDS011;47004;51.366;12.348;2023-04-01T03:59:20;4.33;;;1.50;;
18190;SDS011;47004;51.366;12.348;2023-04-01T04:01:22;10.23;;;1.70;;
18190;SDS011;47004;51.366;12.348;2023-04-01T04:03:26;4.13;;;1.53;;
18190;SDS011;47004;51.366;12.348;2023-04-01T04:05:28;3.50;;;1.43;;
18190;SDS011;47004;51.366;12.348;2023-04-01T04:07:30;2.40;;;1.50;;
18190;SDS011;47004;51.366;12.348;2023-04-01T04:09:31;4.97;;;1.90;;
18190;SDS011;47004;51.366;12.348;2023-04-01T04:11:34;5.10;;;2.07;;
18190;SDS011;47004;51.366;12.348;2023-04-01T04:13:36;8.10;;;1.87;;
18190;SDS011;47004;51.366;12.348;2023-04-01T04:15:38;5.33;;;1.60;;
18190;SDS011;47004;51.366;12.348;2023-04-01T04:17:40;6.70;;;2.00;;
18190;SDS011;47004;51.366;12.348;2023-04-01T04:19:43;4.13;;;1.70;;
18190;SDS011;47004;51.366;12.348;2023-04-01T04:21:45;3.20;;;1.60;;
18190;SDS011;47004;51.366;12.348;2023-04-01T04:23:47;4.33;;;1.70;;
18190;SDS011;47004;51.366;12.348;2023-04-01T04:25:56;6.77;;;2.03;;
18190;SDS011;47004;51.366;12.348;2023-04-01T04:27:59;8.23;;;2.40;;
18190;SDS011;47004;51.366;12.348;2023-04-01T04:30:00;5.83;;;2.30;;
18190;SDS011;47004;51.366;12.348;2023-04-01T04:32:02;9.00;;;2.63;;
18190;SDS011;47004;51.366;12.348;2023-04-01T04:34:05;5.63;;;2.40;;
18190;SDS011;47004;51.366;12.348;2023-04-01T04:36:08;8.53;;;2.53;;
18190;SDS011;47004;51.366;12.348;2023-04-01T04:38:10;5.23;;;2.23;;
18190;SDS011;47004;51.366;12.348;2023-04-01T04:40:12;3.27;;;2.27;;
18190;SDS011;47004;51.366;12.348;2023-04-01T04:42:14;7.77;;;2.70;;
18190;SDS011;47004;51.366;12.348;2023-04-01T04:44:16;9.43;;;2.60;;
18190;SDS011;47004;51.366;12.348;2023-04-01T04:46:18;5.07;;;2.17;;
18190;SDS011;47004;51.366;12.348;2023-04-01T04:48:20;5.67;;;2.33;;
18190;SDS011;47004;51.366;12.348;2023-04-01T04:50:22;6.20;;;2.40;;
18190;SDS011;47004;51.366;12.348;2023-04-01T04:52:27;5.53;;;2.40;;
18190;SDS011;47004;51.366;12.348;2023-04-01T04:54:29;10.03;;;2.87;;
18190;SDS011;47004;51.366;12.348;2023-04-01T04:56:31;7.07;;;3.23;;
18190;SDS011;47004;51.366;12.348;2023-04-01T04:58:33;4.97;;;2.90;;
18190;SDS011;47004;51.366;12.348;2023-04-01T05:00:35;5.70;;;2.50;;
18190;SDS011;47004;51.366;12.348;2023-04-01T05:02:37;4.77;;;2.80;;
18190;SDS011;47004;51.366;12.348;2023-04-01T05:04:39;4.27;;;2.60;;
18190;SDS011;47004;51.366;12.348;2023-04-01T05:06:42;7.13;;;2.60;;
18190;SDS011;47004;51.366;12.348;2023-04-01T05:08:46;5.40;;;2.57;;
18190;SDS011;47004;51.366;12.348;2023-04-01T05:10:48;7.10;;;2.37;;
18190;SDS011;47004;51.366;12.348;2023-04-01T05:12:50;4.83;;;2.37;;
18190;SDS011;47004;51.366;12.348;2023-04-01T05:14:52;3.63;;;2.20;;
18190;SDS011;47004;51.366;12.348;2023-04-01T05:16:53;4.97;;;1.97;;
18190;SDS011;47004;51.366;12.348;2023-04-01T05:18:55;6.57;;;2.13;;
18190;SDS011;47004;51.366;12.348;2023-04-01T05:20:57;4.73;;;2.30;;
18190;SDS011;47004;51.366;12.348;2023-04-01T05:22:59;4.40;;;2.23;;
18190;SDS011;47004;51.366;12.348;2023-04-01T05:25:05;4.90;;;2.53;;
18190;SDS011;47004;51.366;12.348;2023-04-01T05:27:07;6.83;;;3.13;;
18190;SDS011;47004;51.366;12.348;2023-04-01T05:29:09;6.10;;;3.00;;
18190;SDS011;47004;51.366;12.348;2023-04-01T05:31:12;4.73;;;2.83;;
18190;SDS011;47004;51.366;12.348;2023-04-01T05:33:14;7.07;;;2.70;;
18190;SDS011;47004;51.366;12.348;2023-04-01T05:35:15;6.07;;;2.20;;
18190;SDS011;47004;51.366;12.348;2023-04-01T05:37:17;5.43;;;2.30;;
18190;SDS011;47004;51.366;12.348;2023-04-01T05:39:20;4.23;;;1.90;;
18190;SDS011;47004;51.366;12.348;2023-04-01T05:41:25;3.47;;;2.00;;
18190;SDS011;47004;51.366;12.348;2023-04-01T05:43:27;4.97;;;1.97;;
18190;SDS011;47004;51.366;12.348;2023-04-01T05:45:29;9.33;;;2.20;;
18190;SDS011;47004;51.366;12.348;2023-04-01T05:47:31;2.40;;;1.80;;
18190;SDS011;47004;51.366;12.348;2023-04-01T05:49:36;4.30;;;2.27;;
18190;SDS011;47004;51.366;12.348;2023-04-01T05:51:38;5.07;;;2.03;;
18190;SDS011;47004;51.366;12.348;2023-04-01T05:53:42;5.20;;;2.20;;
18190;SDS011;47004;51.366;12.348;2023-04-01T05:55:44;4.93;;;2.87;;
18190;SDS011;47004;51.366;12.348;2023-04-01T05:57:47;5.30;;;2.60;;
18190;SDS011;47004;51.366;12.348;2023-04-01T05:59:49;4.77;;;2.13;;
18190;SDS011;47004;51.366;12.348;2023-04-01T06:01:51;4.37;;;2.40;;
18190;SDS011;47004;51.366;12.348;2023-04-01T06:03:53;5.83;;;2.40;;
18190;SDS011;47004;51.366;12.348;2023-04-01T06:05:56;11.00;;;2.37;;
18190;SDS011;47004;51.366;12.348;2023-04-01T06:07:58;6.53;;;2.47;;
18190;SDS011;47004;51.366;12.348;2023-04-01T06:10:05;8.87;;;3.70;;
18190;SDS011;47004;51.366;12.348;2023-04-01T06:14:43;4.40;;;2.00;;
18190;SDS011;47004;51.366;12.348;2023-04-01T06:16:55;6.57;;;1.97;;
18190;SDS011;47004;51.366;12.348;2023-04-01T06:19:14;7.47;;;2.80;;
18190;SDS011;47004;51.366;12.348;2023-04-01T06:24:31;3.90;;;2.00;;
18190;SDS011;47004;51.366;12.348;2023-04-01T06:26:44;7.13;;;2.17;;
18190;SDS011;47004;51.366;12.348;2023-04-01T06:31:50;3.87;;;1.60;;
18190;SDS011;47004;51.366;12.348;2023-04-01T06:34:26;4.63;;;1.63;;
18190;SDS011;47004;51.366;12.348;2023-04-01T06:36:48;2.97;;;1.60;;
18190;SDS011;47004;51.366;12.348;2023-04-01T06:39:09;3.27;;;2.00;;
18190;SDS011;47004;51.366;12.348;2023-04-01T06:41:34;4.30;;;2.07;;
18190;SDS011;47004;51.366;12.348;2023-04-01T06:43:50;3.73;;;1.90;;
18190;SDS011;47004;51.366;12.348;2023-04-01T06:46:01;3.47;;;1.90;;
18190;SDS011;47004;51.366;12.348;2023-04-01T06:48:17;7.53;;;1.97;;
18190;SDS011;47004;51.366;12.348;2023-04-01T06:50:33;3.90;;;1.50;;
18190;SDS011;47004;51.366;12.348;2023-04-01T06:52:43;4.17;;;1.53;;
18190;SDS011;47004;51.366;12.348;2023-04-01T06:54:52;4.63;;;1.70;;
18190;SDS011;47004;51.366;12.348;2023-04-01T06:57:02;15.93;;;1.90;;
18190;SDS011;47004;51.366;12.348;2023-04-01T06:59:10;5.57;;;1.60;;
18190;SDS011;47004;51.366;12.348;2023-04-01T07:01:16;5.07;;;1.80;;
18190;SDS011;47004;51.366;12.348;2023-04-01T07:03:26;6.30;;;2.13;;
18190;SDS011;47004;51.366;12.348;2023-04-01T07:05:33;3.97;;;2.00;;
18190;SDS011;47004;51.366;12.348;2023-04-01T07:07:36;5.77;;;2.03;;
18190;SDS011;47004;51.366;12.348;2023-04-01T07:09:43;5.23;;;2.30;;
18190;SDS011;47004;51.366;12.348;2023-04-01T07:11:53;7.57;;;2.60;;
18190;SDS011;47004;51.366;12.348;2023-04-01T07:13:58;6.13;;;1.80;;
18190;SDS011;47004;51.366;12.348;2023-04-01T07:16:05;4.60;;;1.73;;
18190;SDS011;47004;51.366;12.348;2023-04-01T07:18:12;2.67;;;1.80;;
18190;SDS011;47004;51.366;12.348;2023-04-01T07:20:20;3.17;;;1.60;;
18190;SDS011;47004;51.366;12.348;2023-04-01T07:22:26;4.73;;;1.40;;
18190;SDS011;47004;51.366;12.348;2023-04-01T07:24:33;3.23;;;1.30;;
18190;SDS011;47004;51.366;12.348;2023-04-01T07:26:37;4.27;;;1.10;;
18190;SDS011;47004;51.366;12.348;2023-04-01T07:28:39;3.47;;;1.03;;
18190;SDS011;47004;51.366;12.348;2023-04-01T07:30:44;2.97;;;1.30;;
18190;SDS011;47004;51.366;12.348;2023-04-01T07:32:54;2.70;;;1.20;;
18190;SDS011;47004;51.366;12.348;2023-04-01T07:35:07;2.13;;;0.80;;
18190;SDS011;47004;51.366;12.348;2023-04-01T07:37:17;6.43;;;1.10;;
18190;SDS011;47004;51.366;12.348;2023-04-01T07:39:30;3.37;;;1.10;;
18190;SDS011;47004;51.366;12.348;2023-04-01T07:41:44;4.40;;;1.33;;
18190;SDS011;47004;51.366;12.348;2023-04-01T07:43:57;1.80;;;0.80;;
18190;SDS011;47004;51.366;12.348;2023-04-01T07:46:09;4.33;;;1.10;;
18190;SDS011;47004;51.366;12.348;2023-04-01T07:48:20;3.83;;;1.20;;
18190;SDS011;47004;51.366;12.348;2023-04-01T07:50:31;2.17;;;1.10;;
18190;SDS011;47004;51.366;12.348;2023-04-01T07:52:40;1.60;;;1.17;;
18190;SDS011;47004;51.366;12.348;2023-04-01T07:54:51;1.73;;;1.07;;
18190;SDS011;47004;51.366;12.348;2023-04-01T07:56:58;3.73;;;1.03;;
18190;SDS011;47004;51.366;12.348;2023-04-01T07:59:07;2.10;;;0.80;;
18190;SDS011;47004;51.366;12.348;2023-04-01T08:01:17;1.03;;;0.80;;
18190;SDS011;47004;51.366;12.348;2023-04-01T08:05:53;2.13;;;0.80;;
18190;SDS011;47004;51.366;12.348;2023-04-01T08:08:02;1.73;;;0.80;;
18190;SDS011;47004;51.366;12.348;2023-04-01T08:10:11;3.60;;;0.97;;
18190;SDS011;47004;51.366;12.348;2023-04-01T08:12:21;4.33;;;0.90;;
18190;SDS011;47004;51.366;12.348;2023-04-01T08:14:35;1.73;;;0.87;;
18190;SDS011;47004;51.366;12.348;2023-04-01T08:16:43;1.47;;;0.63;;
18190;SDS011;47004;51.366;12.348;2023-04-01T08:18:55;3.93;;;1.00;;
18190;SDS011;47004;51.366;12.348;2023-04-01T08:21:06;3.33;;;1.13;;
18190;SDS011;47004;51.366;12.348;2023-04-01T08:23:16;4.60;;;0.90;;
18190;SDS011;47004;51.366;12.348;2023-04-01T08:25:21;1.80;;;0.63;;
18190;SDS011;47004;51.366;12.348;2023-04-01T08:27:27;4.67;;;1.10;;
18190;SDS011;47004;51.366;12.348;2023-04-01T08:29:36;1.87;;;0.73;;
18190;SDS011;47004;51.366;12.348;2023-04-01T08:31:45;3.90;;;1.13;;
18190;SDS011;47004;51.366;12.348;2023-04-01T08:33:53;3.23;;;1.00;;
18190;SDS011;47004;51.366;12.348;2023-04-01T08:35:57;4.10;;;0.83;;
18190;SDS011;47004;51.366;12.348;2023-04-01T08:38:05;4.13;;;0.80;;
18190;SDS011;47004;51.366;12.348;2023-04-01T08:40:22;4.90;;;1.47;;
18190;SDS011;47004;51.366;12.348;2023-04-01T08:42:43;3.90;;;0.73;;
18190;SDS011;47004;51.366;12.348;2023-04-01T08:45:07;5.97;;;0.70;;
18190;SDS011;47004;51.366;12.348;2023-04-01T08:50:01;2.47;;;1.00;;
18190;SDS011;47004;51.366;12.348;2023-04-01T08:52:29;1.33;;;0.80;;
18190;SDS011;47004;51.366;12.348;2023-04-01T08:54:46;2.53;;;1.00;;
18190;SDS011;47004;51.366;12.348;2023-04-01T08:57:03;2.57;;;0.73;;
18190;SDS011;47004;51.366;12.348;2023-04-01T08:59:17;3.77;;;0.93;;
18190;SDS011;47004;51.366;12.348;2023-04-01T09:01:44;2.80;;;0.80;;
18190;SDS011;47004;51.366;12.348;2023-04-01T09:04:13;3.03;;;0.80;;
18190;SDS011;47004;51.366;12.348;2023-04-01T09:06:24;1.63;;;0.60;;
18190;SDS011;47004;51.366;12.348;2023-04-01T09:08:36;3.60;;;0.80;;
18190;SDS011;47004;51.366;12.348;2023-04-01T09:10:56;2.67;;;1.07;;
18190;SDS011;47004;51.366;12.348;2023-04-01T09:13:11;3.07;;;0.90;;
18190;SDS011;47004;51.366;12.348;2023-04-01T09:15:30;2.93;;;0.97;;
18190;SDS011;47004;51.366;12.348;2023-04-01T09:20:33;1.77;;;0.53;;
18190;SDS011;47004;51.366;12.348;2023-04-01T09:23:02;1.67;;;0.77;;
18190;SDS011;47004;51.366;12.348;2023-04-01T09:25:25;3.87;;;0.70;;
18190;SDS011;47004;51.366;12.348;2023-04-01T09:27:39;2.60;;;0.60;;
18190;SDS011;47004;51.366;12.348;2023-04-01T09:32:38;1.80;;;0.73;;
18190;SDS011;47004;51.366;12.348;2023-04-01T09:34:53;3.80;;;0.80;;
18190;SDS011;47004;51.366;12.348;2023-04-01T09:37:02;1.87;;;0.83;;
18190;SDS011;47004;51.366;12.348;2023-04-01T09:39:30;2.03;;;0.80;;
18190;SDS011;47004;51.366;12.348;2023-04-01T09:41:39;2.07;;;1.10;;
18190;SDS011;47004;51.366;12.348;2023-04-01T09:44:00;1.20;;;0.97;;
18190;SDS011;47004;51.366;12.348;2023-04-01T09:46:11;5.17;;;0.90;;
18190;SDS011;47004;51.366;12.348;2023-04-01T09:48:21;2.13;;;0.87;;
18190;SDS011;47004;51.366;12.348;2023-04-01T09:50:41;3.70;;;0.90;;
18190;SDS011;47004;51.366;12.348;2023-04-01T09:52:55;2.73;;;0.80;;
18190;SDS011;47004;51.366;12.348;2023-04-01T10:00:44;1.57;;;0.73;;
18190;SDS011;47004;51.366;12.348;2023-04-01T10:14:14;1.83;;;1.00;;
18190;SDS011;47004;51.366;12.348;2023-04-01T10:17:00;4.60;;;1.70;;
18190;SDS011;47004;51.366;12.348;2023-04-01T10:19:39;4.43;;;1.60;;
18190;SDS011;47004;51.366;12.348;2023-04-01T10:24:54;4.77;;;1.10;;
18190;SDS011;47004;51.366;12.348;2023-04-01T10:27:40;2.70;;;1.00;;
18190;SDS011;47004;51.366;12.348;2023-04-01T10:30:17;2.13;;;0.80;;
18190;SDS011;47004;51.366;12.348;2023-04-01T10:32:37;2.07;;;0.70;;
18190;SDS011;47004;51.366;12.348;2023-04-01T10:35:14;4.17;;;0.80;;
18190;SDS011;47004;51.366;12.348;2023-04-01T10:37:35;2.30;;;0.60;;
18190;SDS011;47004;51.366;12.348;2023-04-01T10:40:00;1.87;;;0.77;;
18190;SDS011;47004;51.366;12.348;2023-04-01T10:42:39;1.67;;;0.60;;
18190;SDS011;47004;51.366;12.348;2023-04-01T10:53:06;2.23;;;0.80;;
18190;SDS011;47004;51.366;12.348;2023-04-01T10:55:35;1.27;;;0.77;;
18190;SDS011;47004;51.366;12.348;2023-04-01T10:57:55;2.13;;;1.10;;
18190;SDS011;47004;51.366;12.348;2023-04-01T11:00:39;4.43;;;1.10;;
18190;SDS011;47004;51.366;12.348;2023-04-01T11:05:42;1.50;;;0.67;;
18190;SDS011;47004;51.366;12.348;2023-04-01T11:08:17;2.20;;;0.90;;
18190;SDS011;47004;51.366;12.348;2023-04-01T11:13:48;2.90;;;1.00;;
18190;SDS011;47004;51.366;12.348;2023-04-01T11:16:29;2.10;;;1.00;;
18190;SDS011;47004;51.366;12.348;2023-04-01T11:19:03;4.43;;;1.17;;
18190;SDS011;47004;51.366;12.348;2023-04-01T11:21:37;4.70;;;1.30;;
18190;SDS011;47004;51.366;12.348;2023-04-01T11:23:59;1.77;;;0.80;;
18190;SDS011;47004;51.366;12.348;2023-04-01T11:26:14;2.00;;;1.00;;
18190;SDS011;47004;51.366;12.348;2023-04-01T11:28:40;2.77;;;0.70;;
18190;SDS011;47004;51.366;12.348;2023-04-01T11:31:15;2.10;;;0.70;;
18190;SDS011;47004;51.366;12.348;2023-04-01T11:33:34;2.00;;;1.00;;
18190;SDS011;47004;51.366;12.348;2023-04-01T11:35:42;2.50;;;1.00;;
18190;SDS011;47004;51.366;12.348;2023-04-01T11:37:58;2.07;;;0.97;;
18190;SDS011;47004;51.366;12.348;2023-04-01T11:40:17;1.27;;;0.70;;
18190;SDS011;47004;51.366;12.348;2023-04-01T11:42:30;1.30;;;0.57;;
18190;SDS011;47004;51.366;12.348;2023-04-01T11:44:39;2.00;;;0.60;;
18190;SDS011;47004;51.366;12.348;2023-04-01T11:46:59;1.13;;;0.53;;
18190;SDS011;47004;51.366;12.348;2023-04-01T11:49:20;1.90;;;0.40;;
18190;SDS011;47004;51.366;12.348;2023-04-01T11:51:38;0.70;;;0.30;;
18190;SDS011;47004;51.366;12.348;2023-04-01T11:53:52;1.00;;;0.40;;
18190;SDS011;47004;51.366;12.348;2023-04-01T11:56:08;0.83;;;0.50;;
18190;SDS011;47004;51.366;12.348;2023-04-01T11:58:36;0.60;;;0.40;;
18190;SDS011;47004;51.366;12.348;2023-04-01T12:01:14;0.83;;;0.43;;
18190;SDS011;47004;51.366;12.348;2023-04-01T12:03:27;0.30;;;0.30;;
18190;SDS011;47004;51.366;12.348;2023-04-01T12:05:42;2.93;;;0.50;;
18190;SDS011;47004;51.366;12.348;2023-04-01T12:08:00;0.87;;;0.43;;
18190;SDS011;47004;51.366;12.348;2023-04-01T12:10:14;1.93;;;0.40;;
18190;SDS011;47004;51.366;12.348;2023-04-01T12:12:22;1.07;;;0.40;;
18190;SDS011;47004;51.366;12.348;2023-04-01T12:14:32;0.83;;;0.40;;
18190;SDS011;47004;51.366;12.348;2023-04-01T12:16:49;2.07;;;0.60;;
18190;SDS011;47004;51.366;12.348;2023-04-01T12:18:59;0.50;;;0.40;;
18190;SDS011;47004;51.366;12.348;2023-04-01T12:21:14;0.87;;;0.50;;
18190;SDS011;47004;51.366;12.348;2023-04-01T12:23:29;0.73;;;0.63;;
18190;SDS011;47004;51.366;12.348;2023-04-01T12:25:56;1.47;;;0.60;;
18190;SDS011;47004;51.366;12.348;2023-04-01T12:28:22;1.03;;;0.50;;
18190;SDS011;47004;51.366;12.348;2023-04-01T12:30:32;1.67;;;0.70;;
18190;SDS011;47004;51.366;12.348;2023-04-01T12:32:45;1.10;;;0.70;;
18190;SDS011;47004;51.366;12.348;2023-04-01T12:35:02;2.43;;;0.80;;
18190;SDS011;47004;51.366;12.348;2023-04-01T12:37:17;2.87;;;0.70;;
18190;SDS011;47004;51.366;12.348;2023-04-01T12:39:28;0.50;;;0.50;;
18190;SDS011;47004;51.366;12.348;2023-04-01T12:41:45;0.57;;;0.50;;
18190;SDS011;47004;51.366;12.348;2023-04-01T12:44:02;1.30;;;0.60;;
18190;SDS011;47004;51.366;12.348;2023-04-01T12:46:13;1.07;;;0.67;;
18190;SDS011;47004;51.366;12.348;2023-04-01T12:48:27;0.57;;;0.50;;
18190;SDS011;47004;51.366;12.348;2023-04-01T12:51:08;1.27;;;0.50;;
18190;SDS011;47004;51.366;12.348;2023-04-01T12:53:41;1.30;;;0.60;;
18190;SDS011;47004;51.366;12.348;2023-04-01T12:55:53;1.53;;;0.67;;
18190;SDS011;47004;51.366;12.348;2023-04-01T12:58:03;2.93;;;0.90;;
18190;SDS011;47004;51.366;12.348;2023-04-01T13:00:38;0.70;;;0.50;;
18190;SDS011;47004;51.366;12.348;2023-04-01T13:02:51;1.10;;;0.57;;
18190;SDS011;47004;51.366;12.348;2023-04-01T13:05:12;1.00;;;0.50;;
18190;SDS011;47004;51.366;12.348;2023-04-01T13:10:01;0.60;;;0.60;;
18190;SDS011;47004;51.366;12.348;2023-04-01T13:12:15;0.67;;;0.40;;
18190;SDS011;47004;51.366;12.348;2023-04-01T13:14:38;1.70;;;0.90;;
18190;SDS011;47004;51.366;12.348;2023-04-01T13:17:02;0.60;;;0.50;;
18190;SDS011;47004;51.366;12.348;2023-04-01T13:19:13;1.57;;;0.60;;
18190;SDS011;47004;51.366;12.348;2023-04-01T13:21:22;0.67;;;0.40;;
18190;SDS011;47004;51.366;12.348;2023-04-01T13:23:34;0.30;;;0.30;;
18190;SDS011;47004;51.366;12.348;2023-04-01T13:25:46;0.57;;;0.40;;
18190;SDS011;47004;51.366;12.348;2023-04-01T13:27:55;0.60;;;0.40;;
18190;SDS011;47004;51.366;12.348;2023-04-01T13:30:11;1.40;;;0.47;;
18190;SDS011;47004;51.366;12.348;2023-04-01T13:32:28;0.60;;;0.40;;
18190;SDS011;47004;51.366;12.348;2023-04-01T13:34:39;0.30;;;0.30;;
18190;SDS011;47004;51.366;12.348;2023-04-01T13:36:52;0.53;;;0.30;;
18190;SDS011;47004;51.366;12.348;2023-04-01T13:39:11;0.60;;;0.30;;
18190;SDS011;47004;51.366;12.348;2023-04-01T13:41:23;1.90;;;0.40;;
18190;SDS011;47004;51.366;12.348;2023-04-01T13:43:34;1.40;;;1.07;;
18190;SDS011;47004;51.366;12.348;2023-04-01T13:45:42;1.23;;;0.73;;